Terminal Aerodrome Forecast
Issued by NWS

Home | Current Version | Previous Version | Text Only | Print | Product List | Glossary On
Versions: 1 2 3 4 5 6 7 8 9 10 11 12 13 14 15 16 17 18 19 20 21 22 23 24 25 26 27
000
FTUS46 KSGX 030520
TAFSAN
TAF
KSAN 030520Z 0306/0412 VRB05KT P6SM -SHRA SCT040 BKN060 BKN200
     FM031200 12006KT P6SM -SHRA VCTS FEW025 BKN035CB
     FM032000 29011KT P6SM VCSH FEW035 SCT045
     FM040300 VRB04KT P6SM FEW050 SCT250=

USA.gov is the U.S. government's official web portal to all federal, state and local government web resources and services.